Time;durP1;ratioP1;P1;durP2;ratioP2;P2;SDS_P1;SDS_P2;PMS_P1;PMS_P2;Temp;Humidity;BMP_temperature;BMP_pressure;BME280_temperature;BME280_humidity;BME280_pressure;Samples;Min_cycle;Max_cycle;Signal;HPM_P1;HPM_P2
2022/09/03 00:01:49;;;;;;;9.13;4.60;;;;;;;12.70;62.89;101364.06;1731181;80;21209;-88
2022/09/03 00:04:20;;;;;;;8.25;5.37;;;;;;;12.70;62.87;101368.48;1730952;83;21468;-87
2022/09/03 00:06:59;;;;;;;7.92;4.72;;;;;;;12.71;62.92;101371.48;1731289;83;21054;-88
2022/09/03 00:09:36;;;;;;;13.68;7.50;;;;;;;12.71;62.94;101368.84;1729998;80;21593;-88
2022/09/03 00:12:11;;;;;;;7.40;5.20;;;;;;;12.71;63.21;101368.38;1730623;83;21073;-88
2022/09/03 00:14:42;;;;;;;13.30;5.50;;;;;;;12.72;63.08;101374.51;1731264;83;21282;-87
2022/09/03 00:17:33;;;;;;;11.68;5.53;;;;;;;12.73;62.64;101377.03;1767024;77;20951;-88
2022/09/03 00:20:12;;;;;;;6.20;3.35;;;;;;;12.78;63.04;101377.64;1794851;79;20935;-89
2022/09/03 00:22:51;;;;;;;7.20;4.55;;;;;;;12.85;62.87;101383.41;1798125;78;20919;-88
2022/09/03 00:25:29;;;;;;;8.33;3.90;;;;;;;12.93;63.50;101390.84;1797547;79;20836;-87
2022/09/03 00:27:56;;;;;;;5.22;3.72;;;;;;;12.97;61.94;101389.27;1790804;77;21140;-87
2022/09/03 00:30:23;;;;;;;9.68;4.08;;;;;;;13.04;62.72;101393.70;1797974;78;20855;-87
2022/09/03 00:32:58;;;;;;;7.08;3.87;;;;;;;13.10;62.86;101395.99;1798304;79;20911;-86
2022/09/03 00:35:46;;;;;;;5.70;3.98;;;;;;;13.14;62.96;101400.59;1798834;79;20891;-87
2022/09/03 00:38:13;;;;;;;5.35;2.90;;;;;;;13.19;62.52;101399.40;1800905;77;20813;-85
2022/09/03 00:41:18;;;;;;;7.60;3.15;;;;;;;13.23;59.95;101404.88;1799710;77;21212;-88
2022/09/03 00:44:07;;;;;;;7.80;4.40;;;;;;;13.30;60.16;101400.13;1785622;78;21337;-87
2022/09/03 00:46:46;;;;;;;4.70;3.05;;;;;;;13.37;60.78;101395.34;1796040;78;20896;-85
2022/09/03 00:49:33;;;;;;;5.12;2.45;;;;;;;13.42;59.62;101403.34;1822154;78;20875;-87
2022/09/03 00:52:48;;;;;;;3.67;2.77;;;;;;;13.49;58.03;101403.81;1822339;78;20979;-87
2022/09/03 00:55:50;;;;;;;5.12;2.80;;;;;;;13.56;57.14;101403.86;1822423;78;21225;-87
2022/09/03 00:58:37;;;;;;;5.47;3.27;;;;;;;13.65;55.96;101403.30;1820765;78;20950;-88
2022/09/03 01:01:09;;;;;;;5.47;3.20;;;;;;;13.74;58.36;101411.56;1772305;78;20883;-87
2022/09/03 01:03:50;;;;;;;5.15;3.02;;;;;;;13.78;59.73;101410.44;1822959;78;20883;-86
2022/09/03 01:06:39;;;;;;;4.87;3.15;;;;;;;13.78;59.73;101410.44;1819154;78;20924;-86
2022/09/03 01:09:38;;;;;;;4.17;2.27;;;;;;;13.79;59.63;101402.92;1822059;78;21182;-87
2022/09/03 01:12:47;;;;;;;4.78;2.52;;;;;;;13.77;57.47;101407.44;1821855;78;20911;-89
2022/09/03 01:15:22;;;;;;;5.72;2.20;;;;;;;13.79;58.33;101400.30;1821974;78;20836;-88
2022/09/03 01:18:25;;;;;;;4.30;2.77;;;;;;;13.81;58.34;101412.91;1821523;78;20923;-89
2022/09/03 01:21:20;;;;;;;3.83;2.72;;;;;;;13.81;58.34;101412.91;1762899;78;20820;-84
2022/09/03 01:24:22;;;;;;;2.40;2.17;;;;;;;13.82;56.64;101411.95;1822173;78;21780;-87
2022/09/03 01:27:04;;;;;;;4.67;2.20;;;;;;;13.84;58.55;101414.03;1822322;78;20876;-86
2022/09/03 01:29:54;;;;;;;4.50;2.00;;;;;;;13.84;57.95;101411.39;1822302;78;20875;-88
2022/09/03 01:32:35;;;;;;;4.37;1.92;;;;;;;13.83;56.60;101415.83;1822172;78;20982;-88
2022/09/03 01:35:28;;;;;;;3.22;2.12;;;;;;;13.84;56.49;101421.47;1822396;78;20923;-88
2022/09/03 01:38:25;;;;;;;4.87;2.00;;;;;;;13.86;53.34;101398.97;1790526;78;21133;-87
2022/09/03 01:44:39;;;;;;;3.20;2.47;;;;;;;13.92;52.66;101398.60;1824366;78;26392;-85
2022/09/03 01:47:23;;;;;;;4.42;3.08;;;;;;;13.97;52.20;101389.08;1825958;78;20864;-85
2022/09/03 01:50:16;;;;;;;6.17;2.42;;;;;;;14.02;51.77;101394.44;1825924;78;20891;-84
2022/09/03 01:53:03;;;;;;;7.87;3.20;;;;;;;14.07;51.65;101392.38;1826196;78;21106;-87
2022/09/03 01:56:09;;;;;;;8.28;3.30;;;;;;;14.13;53.36;101387.17;1825742;78;20947;-87
2022/09/03 01:58:59;;;;;;;6.70;2.92;;;;;;;14.17;51.95;101399.23;1825938;78;21430;-86
2022/09/03 02:01:27;;;;;;;5.25;4.10;;;;;;;14.17;51.95;101399.23;1824552;78;20947;-88
2022/09/03 02:03:58;;;;;;;6.12;4.00;;;;;;;14.18;51.11;101393.00;1825580;78;20840;-88
2022/09/03 02:06:22;;;;;;;5.15;4.50;;;;;;;14.19;51.02;101390.75;1825110;78;21118;-88
2022/09/03 02:08:48;;;;;;;8.13;3.65;;;;;;;14.24;52.85;101386.50;1825726;78;20876;-88
2022/09/03 02:11:15;;;;;;;6.65;5.15;;;;;;;14.27;52.93;101386.30;1825669;78;20931;-88
2022/09/03 02:13:45;;;;;;;7.45;4.87;;;;;;;14.27;52.93;101386.30;1826196;78;20922;-89
2022/09/03 02:16:15;;;;;;;9.20;4.78;;;;;;;14.28;51.44;101386.69;1825561;78;20875;-87
2022/09/03 02:18:45;;;;;;;6.75;4.87;;;;;;;14.29;52.02;101385.73;1825550;78;21789;-88
2022/09/03 02:21:18;;;;;;;12.18;5.80;;;;;;;14.30;52.30;101391.41;1825648;78;20872;-88
2022/09/03 02:23:45;;;;;;;10.65;5.97;;;;;;;14.32;51.52;101392.16;1826510;78;20888;-87
2022/09/03 02:26:13;;;;;;;8.08;4.78;;;;;;;14.33;51.31;101395.63;1828088;78;21053;-86
2022/09/03 02:28:40;;;;;;;7.17;4.22;;;;;;;14.35;53.51;101395.06;1826743;77;20919;-87
2022/09/03 02:31:07;;;;;;;5.95;4.22;;;;;;;14.35;52.87;101404.30;1825606;78;21138;-88
2022/09/03 02:33:41;;;;;;;9.90;5.40;;;;;;;14.38;53.40;101406.73;1825556;78;20892;-88
2022/09/03 02:36:10;;;;;;;5.50;4.05;;;;;;;14.38;51.70;101414.65;1825592;78;20995;-88
2022/09/03 02:38:37;;;;;;;5.75;3.92;;;;;;;14.37;52.59;101409.84;1825444;78;20978;-89
2022/09/03 02:41:04;;;;;;;7.22;3.45;;;;;;;14.38;51.85;101410.21;1825595;78;20923;-88
2022/09/03 02:43:54;;;;;;;5.75;4.37;;;;;;;14.39;51.77;101410.60;1825623;78;21543;-88
2022/09/03 02:46:31;;;;;;;5.75;4.25;;;;;;;14.42;52.45;101418.31;1825441;78;20927;-89
2022/09/03 02:48:57;;;;;;;6.17;3.52;;;;;;;14.42;52.45;101418.31;1825295;78;21049;-88
2022/09/03 02:51:25;;;;;;;12.23;4.17;;;;;;;14.41;53.89;101412.67;1825346;78;20935;-87
2022/09/03 02:53:51;;;;;;;6.65;3.83;;;;;;;14.42;53.70;101411.72;1825506;78;20954;-87
2022/09/03 02:56:18;;;;;;;4.42;3.33;;;;;;;14.42;52.33;101402.48;1825446;78;21787;-86
2022/09/03 02:58:44;;;;;;;7.37;4.40;;;;;;;14.41;51.36;101402.13;1825504;78;20836;-87
2022/09/03 03:01:11;;;;;;;5.70;3.70;;;;;;;14.43;50.75;101392.31;1825508;78;20923;-88
2022/09/03 03:03:38;;;;;;;6.20;3.52;;;;;;;14.43;50.52;101397.59;1825640;78;21554;-89
2022/09/03 03:06:05;;;;;;;5.08;3.50;;;;;;;14.50;50.46;101402.84;1798457;78;20955;-88
2022/09/03 03:08:33;;;;;;;3.30;3.00;;;;;;;14.50;50.46;101402.84;1798635;78;21172;-89
2022/09/03 03:11:00;;;;;;;3.35;2.98;;;;;;;14.54;50.01;101411.88;1825486;78;20888;-86
2022/09/03 03:13:28;;;;;;;7.53;3.45;;;;;;;14.56;49.73;101419.26;1825699;78;20961;-88
2022/09/03 03:15:58;;;;;;;7.97;3.25;;;;;;;14.58;49.82;101411.61;1825661;78;20888;-85
2022/09/03 03:18:25;;;;;;;5.45;3.08;;;;;;;14.59;49.58;101408.05;1824320;78;20915;-83
2022/09/03 03:20:51;;;;;;;4.40;3.15;;;;;;;14.61;49.36;101396.92;1825709;78;21785;-86
2022/09/03 03:23:18;;;;;;;5.58;3.42;;;;;;;14.61;49.36;101396.92;1825616;78;20915;-86
2022/09/03 03:25:44;;;;;;;6.12;3.00;;;;;;;14.63;49.17;101410.00;1825638;78;20836;-86
2022/09/03 03:28:12;;;;;;;7.70;3.40;;;;;;;14.63;49.23;101416.59;1825627;78;21468;-87
2022/09/03 03:30:41;;;;;;;4.55;2.83;;;;;;;14.65;48.88;101424.82;1825581;78;20955;-86
2022/09/03 03:33:11;;;;;;;3.77;2.47;;;;;;;14.67;49.21;101425.57;1825679;78;21197;-86
2022/09/03 03:35:39;;;;;;;4.35;2.75;;;;;;;14.67;49.21;101425.57;1825512;78;20938;-87
2022/09/03 03:38:06;;;;;;;6.78;2.92;;;;;;;14.70;49.02;101432.44;1825667;78;20872;-87
2022/09/03 03:40:33;;;;;;;7.28;2.80;;;;;;;14.68;48.79;101443.09;1825741;78;20848;-87
2022/09/03 03:43:00;;;;;;;6.35;2.17;;;;;;;14.67;49.03;101441.41;1825547;78;20919;-87
2022/09/03 03:45:26;;;;;;;5.50;2.40;;;;;;;14.70;49.13;101437.23;1825415;77;21912;-87
2022/09/03 03:47:58;;;;;;;6.37;2.35;;;;;;;14.72;49.17;101442.44;1825708;78;20832;-86
2022/09/03 03:50:24;;;;;;;4.03;2.27;;;;;;;14.77;49.01;101446.09;1825842;77;20895;-85
2022/09/03 03:52:51;;;;;;;7.70;2.92;;;;;;;14.81;49.04;101447.12;1825500;77;21416;-88
2022/09/03 03:55:17;;;;;;;9.43;2.87;;;;;;;14.85;48.92;101449.06;1825635;78;20991;-86
2022/09/03 03:57:44;;;;;;;5.15;2.87;;;;;;;14.86;48.86;101448.98;1825681;78;21356;-87
2022/09/03 04:00:14;;;;;;;8.63;2.98;;;;;;;14.89;49.06;101452.73;1825617;78;20947;-87
2022/09/03 04:02:41;;;;;;;4.53;2.90;;;;;;;14.92;48.85;101453.03;1825698;77;20884;-87
2022/09/03 04:05:08;;;;;;;4.62;3.50;;;;;;;14.97;48.55;101450.92;1825707;77;20919;-87
2022/09/03 04:07:36;;;;;;;4.08;2.62;;;;;;;15.02;48.42;101454.58;1825727;77;20836;-87
2022/09/03 04:10:04;;;;;;;5.95;2.20;;;;;;;15.16;48.19;101443.94;1825734;77;21124;-87
2022/09/03 04:12:32;;;;;;;3.85;2.62;;;;;;;15.16;48.19;101443.94;1825857;78;20887;-86
2022/09/03 04:14:59;;;;;;;6.60;2.90;;;;;;;15.26;48.46;101452.12;1826257;77;21737;-85
2022/09/03 04:17:27;;;;;;;5.15;2.98;;;;;;;15.33;47.69;101449.44;1828122;77;21043;-84
2022/09/03 04:19:54;;;;;;;4.05;2.80;;;;;;;15.45;47.13;101455.69;1827558;77;20875;-87
2022/09/03 04:22:20;;;;;;;10.95;3.83;;;;;;;15.52;47.11;101452.55;1825642;78;21224;-86
2022/09/03 04:24:47;;;;;;;4.30;3.17;;;;;;;15.58;47.23;101442.02;1825621;77;21340;-87
2022/09/03 04:27:13;;;;;;;5.58;2.83;;;;;;;15.68;46.81;101440.94;1825485;78;20872;-85
2022/09/03 04:29:41;;;;;;;5.87;3.00;;;;;;;15.77;46.75;101444.78;1825612;78;20958;-87
2022/09/03 04:34:56;;;;;;;8.13;2.55;;;;;;;15.91;46.85;101456.08;1825910;78;21148;-87
2022/09/03 04:37:24;;;;;;;3.95;2.50;;;;;;;16.03;46.23;101454.41;1825591;77;20899;-88
2022/09/03 04:39:52;;;;;;;4.17;3.02;;;;;;;16.12;46.33;101450.27;1825632;78;21471;-88
2022/09/03 04:42:19;;;;;;;5.65;3.10;;;;;;;16.24;46.29;101457.34;1825438;78;20942;-88
2022/09/03 04:44:46;;;;;;;6.20;3.00;;;;;;;16.36;45.73;101454.29;1824681;77;20911;-87
2022/09/03 04:47:15;;;;;;;7.83;3.37;;;;;;;16.46;45.40;101460.63;1821962;78;21161;-87
2022/09/03 04:49:42;;;;;;;11.43;4.42;;;;;;;16.55;45.99;101460.45;1822293;78;20892;-88
2022/09/03 04:52:08;;;;;;;5.60;4.55;;;;;;;16.65;45.04;101450.91;1822174;78;20927;-87
2022/09/03 04:54:36;;;;;;;7.20;3.87;;;;;;;16.74;44.33;101452.01;1822308;78;20970;-88
2022/09/03 04:57:03;;;;;;;8.83;4.20;;;;;;;16.90;44.52;101455.28;1823336;78;20955;-85
2022/09/03 04:59:29;;;;;;;13.05;4.50;;;;;;;17.07;43.44;101460.64;1824269;78;21241;-86
2022/09/03 05:01:56;;;;;;;8.45;4.70;;;;;;;17.29;43.56;101471.83;1822147;78;20970;-87
2022/09/03 05:04:22;;;;;;;9.70;4.37;;;;;;;17.51;42.26;101466.24;1821931;78;20915;-87
2022/09/03 05:06:49;;;;;;;7.62;4.33;;;;;;;17.72;42.20;101454.45;1821893;78;20923;-88
2022/09/03 05:09:17;;;;;;;11.25;5.70;;;;;;;17.96;41.47;101455.28;1822255;78;20923;-87
2022/09/03 05:11:43;;;;;;;6.85;4.72;;;;;;;18.18;40.92;101453.57;1822224;78;21162;-86
2022/09/03 05:14:11;;;;;;;10.58;4.70;;;;;;;18.29;40.36;101454.89;1821988;78;20935;-88
2022/09/03 05:16:38;;;;;;;7.70;4.60;;;;;;;18.33;39.71;101454.18;1821890;78;20932;-89
2022/09/03 05:19:08;;;;;;;7.95;4.12;;;;;;;18.42;39.75;101450.30;1821746;78;21377;-87
2022/09/03 05:21:35;;;;;;;6.80;4.33;;;;;;;18.53;38.54;101454.75;1822074;78;20884;-87
2022/09/03 05:24:02;;;;;;;8.93;3.87;;;;;;;18.75;38.62;101455.69;1821985;78;21125;-87
2022/09/03 05:26:31;;;;;;;9.65;3.72;;;;;;;19.18;37.70;101455.67;1821862;78;20985;-87
2022/09/03 05:29:01;;;;;;;8.53;3.45;;;;;;;19.63;37.52;101453.26;1821976;78;20994;-89
2022/09/03 05:31:30;;;;;;;16.00;3.37;;;;;;;20.19;37.24;101453.39;1821941;78;20963;-88
2022/09/03 05:33:59;;;;;;;8.28;2.75;;;;;;;20.80;35.62;101453.78;1821805;78;21024;-84
2022/09/03 05:36:28;;;;;;;11.15;3.10;;;;;;;21.30;35.04;101450.50;1821891;78;21151;-87
2022/09/03 05:38:56;;;;;;;11.93;3.40;;;;;;;21.67;34.91;101464.94;1821983;78;20915;-87
2022/09/03 05:41:23;;;;;;;5.72;2.62;;;;;;;21.87;34.10;101459.88;1821965;78;20934;-87
2022/09/03 05:43:54;;;;;;;3.92;2.60;;;;;;;21.91;33.77;101451.10;1822051;78;20970;-87
2022/09/03 05:46:20;;;;;;;9.60;3.90;;;;;;;21.88;33.76;101439.39;1824564;78;20919;-86
2022/09/03 05:48:46;;;;;;;8.15;3.22;;;;;;;22.01;33.58;101441.23;1825390;78;21163;-87
2022/09/03 05:51:16;;;;;;;6.92;3.55;;;;;;;22.45;33.52;101438.78;1825433;78;20907;-88
2022/09/03 05:53:46;;;;;;;10.00;3.60;;;;;;;22.97;32.05;101430.14;1825640;78;20938;-88
2022/09/03 05:56:19;;;;;;;8.75;4.47;;;;;;;23.51;31.74;101427.41;1825471;78;20926;-88
2022/09/03 05:58:50;;;;;;;7.83;3.42;;;;;;;24.05;31.20;101420.03;1825473;78;20962;-86
2022/09/03 06:01:25;;;;;;;9.43;3.52;;;;;;;24.64;29.83;101420.09;1824815;78;21344;-87
2022/09/03 06:04:01;;;;;;;7.22;2.90;;;;;;;25.16;29.56;101421.13;1825424;78;20976;-88
2022/09/03 06:06:30;;;;;;;6.37;3.10;;;;;;;25.68;28.80;101417.25;1825796;78;21033;-87
2022/09/03 06:09:01;;;;;;;8.40;3.33;;;;;;;26.05;27.74;101419.83;1825514;78;20988;-87
2022/09/03 06:11:31;;;;;;;13.00;4.47;;;;;;;26.40;28.19;101402.34;1825552;78;20974;-88
2022/09/03 06:14:00;;;;;;;11.60;4.12;;;;;;;26.85;27.67;101398.55;1825345;78;21244;-88
2022/09/03 06:16:27;;;;;;;8.43;3.98;;;;;;;27.31;27.13;101397.69;1825510;78;20906;-88
2022/09/03 06:18:55;;;;;;;7.12;4.08;;;;;;;27.67;26.55;101408.06;1825568;78;21377;-85
2022/09/03 06:21:22;;;;;;;8.83;3.40;;;;;;;27.83;25.68;101400.29;1825461;78;20926;-88
2022/09/03 06:23:50;;;;;;;8.00;3.30;;;;;;;27.74;25.46;101405.46;1825499;78;20946;-85
2022/09/03 06:26:17;;;;;;;6.58;4.10;;;;;;;27.62;25.79;101405.61;1825710;78;21232;-88
2022/09/03 06:28:44;;;;;;;7.75;3.27;;;;;;;27.76;26.24;101397.20;1825486;78;20859;-87
2022/09/03 06:31:15;;;;;;;7.35;2.72;;;;;;;28.08;24.81;101394.62;1825673;78;20939;-86
2022/09/03 06:33:42;;;;;;;7.53;2.75;;;;;;;28.31;25.11;101389.93;1824458;78;20868;-88
2022/09/03 06:36:14;;;;;;;9.28;2.72;;;;;;;28.62;24.29;101390.19;1825757;78;20911;-89
2022/09/03 06:38:41;;;;;;;6.33;2.60;;;;;;;28.97;23.42;101385.41;1825982;78;21248;-88
2022/09/03 06:41:25;;;;;;;5.58;1.90;;;;;;;29.24;23.49;101372.99;1827340;78;20985;-88
2022/09/03 06:43:45;;;;;;;3.40;2.22;;;;;;;29.44;22.50;101371.25;1823808;77;20911;-89
2022/09/03 06:46:14;;;;;;;8.80;2.33;;;;;;;29.68;22.28;101384.84;1825690;78;20904;-87
2022/09/03 06:48:41;;;;;;;5.00;2.20;;;;;;;29.79;22.19;101371.77;1824706;78;21033;-88
2022/09/03 06:51:13;;;;;;;4.17;2.40;;;;;;;29.82;21.17;101377.62;1824061;77;21113;-87
2022/09/03 06:53:42;;;;;;;4.87;2.62;;;;;;;29.85;21.66;101368.27;1823701;77;20930;-88
2022/09/03 06:56:11;;;;;;;5.95;2.92;;;;;;;29.99;22.08;101365.09;1824253;77;21100;-88
2022/09/03 07:00:08;;;;;;;7.08;3.30;;;;;;;30.45;21.82;101350.37;1886929;74;22761;-88
2022/09/03 07:02:40;;;;;;;5.92;2.50;;;;;;;30.67;21.37;101351.02;1863889;77;20973;-89
2022/09/03 07:05:11;;;;;;;3.40;1.87;;;;;;;30.81;20.45;101355.91;1863921;76;21139;-89
2022/09/03 07:07:38;;;;;;;19.40;2.60;;;;;;;30.99;21.04;101352.60;1863591;77;20974;-88
2022/09/03 07:10:06;;;;;;;5.33;1.90;;;;;;;31.20;20.03;101359.69;1863601;77;20891;-87
2022/09/03 07:12:36;;;;;;;4.60;3.50;;;;;;;31.12;19.71;101344.99;1863753;77;20958;-88
2022/09/03 07:15:01;;;;;;;4.62;1.90;;;;;;;30.89;20.29;101342.20;1863723;77;20923;-88
2022/09/03 07:17:29;;;;;;;7.33;2.42;;;;;;;30.68;20.79;101345.08;1863829;77;21057;-88
2022/09/03 07:19:55;;;;;;;6.20;1.95;;;;;;;30.68;20.81;101345.94;1863719;76;20961;-88
2022/09/03 07:22:22;;;;;;;3.25;1.98;;;;;;;30.77;20.20;101339.77;1863746;76;20977;-87
2022/09/03 07:24:51;;;;;;;6.28;1.77;;;;;;;30.74;20.68;101332.89;1864003;77;21041;-87
2022/09/03 07:27:17;;;;;;;2.92;2.22;;;;;;;30.84;20.48;101327.57;1863661;76;20905;-88
2022/09/03 07:29:44;;;;;;;4.55;1.75;;;;;;;31.11;20.43;101318.42;1863877;77;21064;-88
2022/09/03 07:32:11;;;;;;;3.05;1.90;;;;;;;31.46;20.27;101324.09;1863936;77;20887;-90
2022/09/03 07:34:37;;;;;;;4.47;2.20;;;;;;;31.71;19.05;101317.45;1863924;77;20923;-89
2022/09/03 07:37:04;;;;;;;7.60;1.90;;;;;;;31.76;18.73;101320.34;1863698;77;20969;-89
2022/09/03 07:39:32;;;;;;;8.55;1.82;;;;;;;31.69;19.57;101313.59;1863501;76;20874;-88
2022/09/03 07:41:58;;;;;;;2.37;1.20;;;;;;;31.88;19.43;101308.28;1863776;76;21057;-88
2022/09/03 07:44:27;;;;;;;3.85;1.82;;;;;;;31.98;18.81;101295.11;1864538;77;20884;-89
2022/09/03 07:46:54;;;;;;;2.50;1.67;;;;;;;32.07;18.96;101300.59;1864470;77;20868;-88
2022/09/03 07:49:21;;;;;;;6.15;1.25;;;;;;;32.23;19.00;101301.94;1864364;77;20859;-90
2022/09/03 07:51:49;;;;;;;10.72;1.45;;;;;;;32.30;17.74;101303.25;1862330;77;20860;-90
2022/09/03 07:54:15;;;;;;;4.72;2.15;;;;;;;32.15;17.58;101299.48;1861790;77;21124;-90
2022/09/03 07:56:42;;;;;;;8.25;1.40;;;;;;;31.88;18.52;101288.75;1830542;76;20880;-90
2022/09/03 07:59:09;;;;;;;6.33;1.65;;;;;;;31.65;18.86;101287.94;1861381;77;20891;-89
2022/09/03 08:01:37;;;;;;;4.37;1.37;;;;;;;31.38;18.91;101288.55;1861294;77;20891;-90
2022/09/03 08:04:05;;;;;;;3.98;1.00;;;;;;;31.09;19.21;101277.69;1861589;77;21372;-89
2022/09/03 08:06:32;;;;;;;1.37;0.90;;;;;;;30.75;19.13;101279.06;1861595;77;21149;-89
2022/09/03 08:09:01;;;;;;;5.50;1.75;;;;;;;30.36;19.48;101274.47;1861312;77;20907;-88
2022/09/03 08:11:30;;;;;;;2.37;1.20;;;;;;;29.96;19.56;101277.91;1860958;77;20900;-88
2022/09/03 08:14:05;;;;;;;5.95;1.35;;;;;;;29.54;20.00;101277.63;1860724;77;20867;-88
2022/09/03 08:16:34;;;;;;;2.52;1.20;;;;;;;29.14;20.35;101280.13;1861419;77;21051;-89
2022/09/03 08:19:01;;;;;;;8.68;2.05;;;;;;;28.78;20.88;101274.35;1861273;77;21210;-87
2022/09/03 08:21:28;;;;;;;8.95;1.27;;;;;;;28.49;20.94;101271.32;1861165;77;20922;-89
2022/09/03 08:24:01;;;;;;;8.10;1.12;;;;;;;28.15;21.07;101267.45;1860551;76;20863;-88
2022/09/03 08:26:30;;;;;;;6.00;1.03;;;;;;;27.90;20.99;101275.91;1860839;77;20840;-89
2022/09/03 08:28:59;;;;;;;2.40;0.90;;;;;;;27.64;21.53;101266.95;1860843;77;20946;-89
2022/09/03 08:31:28;;;;;;;8.53;1.30;;;;;;;27.52;22.12;101260.36;1857741;76;21025;-88
2022/09/03 08:33:56;;;;;;;4.03;1.40;;;;;;;27.65;21.91;101257.83;1860734;77;21337;-89
2022/09/03 08:36:28;;;;;;;8.10;1.07;;;;;;;27.79;21.83;101266.08;1861309;77;20903;-88
2022/09/03 08:38:56;;;;;;;4.33;0.80;;;;;;;27.94;22.12;101253.94;1861248;76;20863;-88
2022/09/03 08:41:35;;;;;;;5.37;1.82;;;;;;;28.06;21.77;101247.86;1861562;77;20950;-86
2022/09/03 08:44:22;;;;;;;2.87;1.00;;;;;;;28.28;21.93;101241.09;1860832;77;21188;-88
2022/09/03 08:47:29;;;;;;;2.58;1.42;;;;;;;28.39;21.37;101251.88;1860838;77;21408;-88
2022/09/03 08:50:05;;;;;;;4.17;1.10;;;;;;;28.40;21.09;101250.34;1861221;77;20883;-88
2022/09/03 08:52:54;;;;;;;1.98;1.10;;;;;;;28.32;21.49;101245.08;1861168;77;20884;-86
2022/09/03 08:55:43;;;;;;;2.37;0.90;;;;;;;28.28;21.76;101247.84;1863647;77;20974;-86
2022/09/03 08:58:15;;;;;;;5.90;0.98;;;;;;;28.16;22.05;101244.00;1860893;77;21220;-89
2022/09/03 09:01:12;;;;;;;5.85;0.93;;;;;;;27.95;22.58;101237.58;1861332;76;20915;-88
2022/09/03 09:03:54;;;;;;;6.50;1.22;;;;;;;27.72;22.48;101246.30;1798511;77;20919;-89
2022/09/03 09:06:51;;;;;;;1.32;0.90;;;;;;;27.41;22.70;101234.77;1861567;77;20915;-88
2022/09/03 09:09:39;;;;;;;2.25;0.80;;;;;;;27.16;23.23;101240.91;1861331;77;20864;-87
2022/09/03 09:12:41;;;;;;;2.92;1.00;;;;;;;26.86;23.50;101230.14;1861584;77;21929;-89
2022/09/03 09:15:28;;;;;;;1.20;0.70;;;;;;;26.63;23.93;101226.66;1860935;77;20915;-88
2022/09/03 09:18:36;;;;;;;2.42;0.70;;;;;;;26.55;24.19;101218.17;1861189;77;21364;-88
2022/09/03 09:21:25;;;;;;;6.55;0.72;;;;;;;26.52;24.30;101221.70;1860788;77;20859;-89
2022/09/03 09:23:53;;;;;;;2.33;0.80;;;;;;;26.49;24.68;101216.17;1861017;77;20930;-88
2022/09/03 09:26:20;;;;;;;5.22;1.05;;;;;;;26.79;24.63;101214.41;1861190;77;21086;-88
2022/09/03 09:29:04;;;;;;;8.43;1.12;;;;;;;27.00;24.41;101209.63;1860849;76;20890;-89
2022/09/03 09:31:32;;;;;;;3.67;1.05;;;;;;;27.46;24.29;101222.08;1860651;77;20907;-88
2022/09/03 09:34:03;;;;;;;4.25;0.78;;;;;;;27.87;23.78;101206.17;1860703;76;21041;-88
2022/09/03 09:36:31;;;;;;;2.13;0.97;;;;;;;28.24;23.78;101204.25;1858174;76;20902;-88
2022/09/03 09:39:08;;;;;;;6.80;0.80;;;;;;;28.73;23.15;101203.93;1860806;76;21182;-88
2022/09/03 09:41:36;;;;;;;3.42;0.65;;;;;;;29.10;21.52;101220.28;1860809;76;20867;-87
2022/09/03 09:44:04;;;;;;;8.93;1.17;;;;;;;29.25;21.12;101206.62;1860792;77;20859;-87
2022/09/03 09:46:35;;;;;;;4.60;0.70;;;;;;;29.17;21.41;101208.16;1860878;76;20938;-87
2022/09/03 09:49:02;;;;;;;3.65;0.75;;;;;;;29.11;20.84;101207.08;1860259;77;21514;-87
2022/09/03 09:51:30;;;;;;;1.20;0.40;;;;;;;28.96;21.13;101207.69;1860923;77;21772;-88
2022/09/03 09:54:11;;;;;;;3.12;0.45;;;;;;;28.81;21.62;101211.02;1860541;77;20907;-88
2022/09/03 09:56:38;;;;;;;3.60;0.90;;;;;;;28.69;21.93;101214.27;1860852;77;20848;-89
2022/09/03 09:59:08;;;;;;;3.62;1.20;;;;;;;28.55;22.02;101212.52;1854809;76;20910;-88
2022/09/03 10:01:42;;;;;;;6.67;1.22;;;;;;;28.50;22.29;101205.51;1835744;77;20954;-88
2022/09/03 10:04:23;;;;;;;4.58;0.82;;;;;;;28.53;21.91;101208.36;1807829;78;21176;-88
2022/09/03 10:06:56;;;;;;;2.92;1.15;;;;;;;28.65;21.92;101212.17;1835464;77;21431;-87
2022/09/03 10:09:25;;;;;;;1.70;1.60;;;;;;;28.89;21.71;101207.66;1829076;76;20954;-87
2022/09/03 10:12:19;;;;;;;8.45;1.12;;;;;;;29.16;21.55;101209.17;1836550;77;20903;-87
2022/09/03 10:15:06;;;;;;;2.70;0.50;;;;;;;29.40;21.51;101205.66;1837583;76;21209;-87
2022/09/03 10:18:09;;;;;;;5.17;1.07;;;;;;;29.61;21.47;101198.73;1815725;77;21183;-88
2022/09/03 10:20:46;;;;;;;2.52;0.80;;;;;;;29.79;21.14;101191.95;1837364;76;21024;-89
2022/09/03 10:23:27;;;;;;;3.90;0.55;;;;;;;30.04;20.65;101196.27;1831618;77;20875;-87
2022/09/03 10:26:10;;;;;;;0.88;0.62;;;;;;;30.28;20.75;101198.39;1837739;77;21289;-89
2022/09/03 10:28:41;;;;;;;7.42;0.57;;;;;;;30.52;20.11;101192.02;1837850;77;20954;-88
2022/09/03 10:31:55;;;;;;;3.83;0.93;;;;;;;30.61;20.11;101187.21;1837610;77;21418;-88
2022/09/03 10:34:47;;;;;;;1.40;1.00;;;;;;;30.67;20.16;101190.44;1805030;77;20953;-88
2022/09/03 10:37:28;;;;;;;6.10;1.30;;;;;;;30.62;20.32;101188.36;1837812;77;20914;-89
2022/09/03 10:40:29;;;;;;;2.85;0.95;;;;;;;30.43;20.75;101179.73;1837593;77;20923;-88
2022/09/03 10:43:01;;;;;;;2.10;0.60;;;;;;;30.30;20.74;101175.98;1798141;78;20988;-88
2022/09/03 10:45:50;;;;;;;6.85;0.72;;;;;;;29.99;20.74;101163.58;1814456;78;21201;-87
2022/09/03 10:48:41;;;;;;;7.53;0.80;;;;;;;29.71;21.19;101165.42;1798046;78;20890;-88
2022/09/03 10:51:21;;;;;;;2.83;0.82;;;;;;;29.55;21.08;101157.16;1814634;78;20813;-89
2022/09/03 10:54:17;;;;;;;5.92;0.80;;;;;;;29.44;21.44;101156.41;1765016;77;20930;-88
2022/09/03 10:57:17;;;;;;;2.05;0.70;;;;;;;29.27;21.32;101155.92;1814258;77;20793;-88
2022/09/03 11:00:08;;;;;;;4.25;1.17;;;;;;;29.05;21.38;101155.17;1807488;78;21106;-88
2022/09/03 11:03:26;;;;;;;3.12;0.85;;;;;;;28.76;21.70;101160.85;1820469;78;20889;-88
2022/09/03 11:06:14;;;;;;;7.62;1.25;;;;;;;28.53;22.01;101157.91;1820202;78;20905;-87
2022/09/03 11:09:10;;;;;;;4.87;0.70;;;;;;;28.33;22.51;101148.81;1820227;78;20960;-87
2022/09/03 11:11:41;;;;;;;2.05;0.70;;;;;;;28.24;22.63;101140.03;1795426;78;20955;-87
2022/09/03 11:14:10;;;;;;;2.27;1.10;;;;;;;28.04;22.90;101135.31;1790828;79;21894;-86
2022/09/03 11:16:50;;;;;;;5.55;0.75;;;;;;;27.89;23.10;101128.64;1794841;79;20891;-88
2022/09/03 11:19:18;;;;;;;2.92;0.80;;;;;;;27.79;23.15;101131.30;1793419;80;20922;-89
2022/09/03 11:21:44;;;;;;;1.92;1.52;;;;;;;27.74;23.24;101123.80;1793374;80;20931;-87
2022/09/03 11:24:26;;;;;;;2.47;1.62;;;;;;;27.75;23.42;101116.53;1793341;80;20942;-88
2022/09/03 11:27:05;;;;;;;4.35;1.00;;;;;;;27.73;23.20;101111.36;1793631;80;21124;-88
2022/09/03 11:29:59;;;;;;;1.80;0.68;;;;;;;27.66;23.48;101121.25;1768592;80;21339;-88
2022/09/03 11:32:29;;;;;;;;;;;;;;;27.61;23.45;101122.32;1784284;80;20888;-88
2022/09/03 11:34:56;;;;;;;2.95;1.32;;;;;;;27.53;23.47;101123.30;1760483;81;20221;-88
2022/09/03 11:37:27;;;;;;;7.28;0.93;;;;;;;27.47;23.88;101114.63;1762192;80;20944;-88
2022/09/03 11:40:08;;;;;;;5.00;0.90;;;;;;;27.54;24.10;101116.86;1775699;80;21144;-92
2022/09/03 11:42:40;;;;;;;3.77;1.07;;;;;;;27.63;23.89;101123.80;1775418;80;20889;-88
2022/09/03 11:45:21;;;;;;;1.10;1.00;;;;;;;27.60;23.71;101123.36;1778904;80;21355;-89
2022/09/03 11:47:48;;;;;;;4.12;0.88;;;;;;;27.63;23.95;101122.44;1804751;79;20855;-89
2022/09/03 11:50:20;;;;;;;5.70;1.00;;;;;;;27.65;23.81;101119.05;1802215;79;21325;-89
2022/09/03 11:52:50;;;;;;;0.70;0.62;;;;;;;27.54;23.55;101112.00;1802728;78;21230;-88
2022/09/03 11:55:32;;;;;;;5.25;1.32;;;;;;;27.40;23.93;101112.38;1804424;79;20915;-89
2022/09/03 11:58:12;;;;;;;5.00;1.25;;;;;;;27.35;23.82;101109.43;1804609;78;21471;-89
2022/09/03 12:00:39;;;;;;;3.00;0.95;;;;;;;27.21;23.88;101099.00;1780268;78;21004;-89
2022/09/03 12:03:06;;;;;;;2.10;1.00;;;;;;;27.14;24.16;101088.12;1785455;79;20867;-89
2022/09/03 12:05:51;;;;;;;6.33;0.98;;;;;;;27.08;24.48;101092.94;1758785;80;21380;-89